sensor_id;sensor_type;location;lat;lon;timestamp;pressure;altitude;pressure_sealevel;temperature;humidity
13348;BME280;6743;49.934;9.138;2023-06-22T00:01:11;100471.41;;;24.01;100.00
13348;BME280;6743;49.934;9.138;2023-06-22T00:03:37;100449.19;;;23.99;100.00
13348;BME280;6743;49.934;9.138;2023-06-22T00:06:03;100419.69;;;24.02;100.00
13348;BME280;6743;49.934;9.138;2023-06-22T00:08:29;100380.97;;;24.07;100.00
13348;BME280;6743;49.934;9.138;2023-06-22T00:10:55;100357.41;;;24.07;100.00
13348;BME280;6743;49.934;9.138;2023-06-22T00:13:22;100343.84;;;24.07;100.00
13348;BME280;6743;49.934;9.138;2023-06-22T00:15:48;100350.66;;;24.10;100.00
13348;BME280;6743;49.934;9.138;2023-06-22T00:18:14;100362.81;;;24.07;100.00
13348;BME280;6743;49.934;9.138;2023-06-22T00:20:41;100370.94;;;24.07;100.00
13348;BME280;6743;49.934;9.138;2023-06-22T00:23:07;100369.41;;;24.11;100.00
13348;BME280;6743;49.934;9.138;2023-06-22T00:25:34;100380.25;;;24.11;100.00
13348;BME280;6743;49.934;9.138;2023-06-22T00:28:00;100390.25;;;24.11;100.00
13348;BME280;6743;49.934;9.138;2023-06-22T00:30:26;100392.97;;;24.11;100.00
13348;BME280;6743;49.934;9.138;2023-06-22T00:32:52;100397.50;;;24.05;100.00
13348;BME280;6743;49.934;9.138;2023-06-22T00:35:19;100400.47;;;24.04;100.00
13348;BME280;6743;49.934;9.138;2023-06-22T00:37:45;100405.22;;;23.97;100.00
13348;BME280;6743;49.934;9.138;2023-06-22T00:40:11;100408.94;;;23.90;100.00
13348;BME280;6743;49.934;9.138;2023-06-22T00:42:37;100423.81;;;23.88;100.00
13348;BME280;6743;49.934;9.138;2023-06-22T00:45:05;100433.75;;;23.82;100.00
13348;BME280;6743;49.934;9.138;2023-06-22T00:47:32;100433.97;;;23.81;100.00
13348;BME280;6743;49.934;9.138;2023-06-22T00:49:59;100438.56;;;23.80;100.00
13348;BME280;6743;49.934;9.138;2023-06-22T00:52:26;100432.03;;;23.76;100.00
13348;BME280;6743;49.934;9.138;2023-06-22T00:54:56;100431.19;;;23.76;100.00
13348;BME280;6743;49.934;9.138;2023-06-22T00:57:23;100457.47;;;23.75;100.00
13348;BME280;6743;49.934;9.138;2023-06-22T00:59:53;100483.75;;;23.75;100.00
13348;BME280;6743;49.934;9.138;2023-06-22T01:02:20;100499.66;;;23.54;100.00
13348;BME280;6743;49.934;9.138;2023-06-22T01:04:46;100528.47;;;23.61;100.00
13348;BME280;6743;49.934;9.138;2023-06-22T01:07:18;100536.72;;;23.54;100.00
13348;BME280;6743;49.934;9.138;2023-06-22T01:09:53;100540.50;;;23.53;100.00
13348;BME280;6743;49.934;9.138;2023-06-22T01:12:23;100547.25;;;23.50;100.00
13348;BME280;6743;49.934;9.138;2023-06-22T01:14:56;100543.44;;;23.51;100.00
13348;BME280;6743;49.934;9.138;2023-06-22T01:17:24;100554.28;;;23.51;100.00
13348;BME280;6743;49.934;9.138;2023-06-22T01:19:54;100583.25;;;23.39;100.00
13348;BME280;6743;49.934;9.138;2023-06-22T01:22:23;100617.88;;;23.37;100.00
13348;BME280;6743;49.934;9.138;2023-06-22T01:24:57;100663.66;;;23.39;100.00
13348;BME280;6743;49.934;9.138;2023-06-22T01:27:38;100705.13;;;23.39;100.00
13348;BME280;6743;49.934;9.138;2023-06-22T01:30:08;100746.22;;;23.36;100.00
13348;BME280;6743;49.934;9.138;2023-06-22T01:32:37;100772.94;;;23.21;100.00
13348;BME280;6743;49.934;9.138;2023-06-22T01:35:05;100768.91;;;23.12;100.00
13348;BME280;6743;49.934;9.138;2023-06-22T01:37:33;100785.38;;;23.10;100.00
13348;BME280;6743;49.934;9.138;2023-06-22T01:40:00;100794.72;;;23.14;100.00
13348;BME280;6743;49.934;9.138;2023-06-22T01:42:27;100787.62;;;23.13;100.00
13348;BME280;6743;49.934;9.138;2023-06-22T01:44:53;100746.09;;;23.20;100.00
13348;BME280;6743;49.934;9.138;2023-06-22T01:47:20;100612.88;;;23.17;100.00
13348;BME280;6743;49.934;9.138;2023-06-22T01:49:46;100524.81;;;23.27;100.00
13348;BME280;6743;49.934;9.138;2023-06-22T01:52:12;100559.47;;;23.13;100.00
13348;BME280;6743;49.934;9.138;2023-06-22T01:54:39;100585.38;;;23.09;100.00
13348;BME280;6743;49.934;9.138;2023-06-22T01:57:06;100561.84;;;23.09;100.00
13348;BME280;6743;49.934;9.138;2023-06-22T01:59:34;100532.31;;;23.08;100.00
13348;BME280;6743;49.934;9.138;2023-06-22T02:02:06;100485.63;;;23.01;100.00
13348;BME280;6743;49.934;9.138;2023-06-22T02:04:36;100439.75;;;22.94;100.00
13348;BME280;6743;49.934;9.138;2023-06-22T02:07:05;100405.22;;;22.85;100.00
13348;BME280;6743;49.934;9.138;2023-06-22T02:09:35;100383.37;;;22.74;100.00
13348;BME280;6743;49.934;9.138;2023-06-22T02:12:05;100375.84;;;22.65;100.00
13348;BME280;6743;49.934;9.138;2023-06-22T02:14:32;100377.59;;;22.71;100.00
13348;BME280;6743;49.934;9.138;2023-06-22T02:16:59;100374.06;;;22.70;100.00
13348;BME280;6743;49.934;9.138;2023-06-22T02:19:26;100362.94;;;22.67;100.00
13348;BME280;6743;49.934;9.138;2023-06-22T02:21:53;100356.47;;;22.68;100.00
13348;BME280;6743;49.934;9.138;2023-06-22T02:24:19;100360.78;;;22.69;100.00
13348;BME280;6743;49.934;9.138;2023-06-22T02:26:49;100362.09;;;22.66;100.00
13348;BME280;6743;49.934;9.138;2023-06-22T02:29:15;100375.63;;;22.66;100.00
13348;BME280;6743;49.934;9.138;2023-06-22T02:31:41;100398.91;;;22.67;100.00
13348;BME280;6743;49.934;9.138;2023-06-22T02:34:07;100404.06;;;22.69;100.00
13348;BME280;6743;49.934;9.138;2023-06-22T02:36:33;100409.47;;;22.69;100.00
13348;BME280;6743;49.934;9.138;2023-06-22T02:39:00;100418.16;;;22.71;100.00
13348;BME280;6743;49.934;9.138;2023-06-22T02:41:27;100422.31;;;22.73;100.00
13348;BME280;6743;49.934;9.138;2023-06-22T02:43:53;100441.44;;;22.72;100.00
13348;BME280;6743;49.934;9.138;2023-06-22T02:46:19;100446.25;;;22.70;100.00
13348;BME280;6743;49.934;9.138;2023-06-22T02:48:45;100463.44;;;22.64;100.00
13348;BME280;6743;49.934;9.138;2023-06-22T02:51:11;100467.44;;;22.61;100.00
13348;BME280;6743;49.934;9.138;2023-06-22T02:53:37;100459.00;;;22.58;100.00
13348;BME280;6743;49.934;9.138;2023-06-22T02:56:04;100469.47;;;22.66;100.00
13348;BME280;6743;49.934;9.138;2023-06-22T02:58:31;100466.53;;;22.56;100.00
13348;BME280;6743;49.934;9.138;2023-06-22T03:00:58;100485.59;;;22.61;100.00
13348;BME280;6743;49.934;9.138;2023-06-22T03:03:29;100469.34;;;22.61;100.00
13348;BME280;6743;49.934;9.138;2023-06-22T03:05:55;100463.59;;;22.57;100.00
13348;BME280;6743;49.934;9.138;2023-06-22T03:08:21;100457.59;;;22.55;100.00
13348;BME280;6743;49.934;9.138;2023-06-22T03:10:47;100463.72;;;22.51;100.00
13348;BME280;6743;49.934;9.138;2023-06-22T03:13:17;100457.37;;;22.45;100.00
13348;BME280;6743;49.934;9.138;2023-06-22T03:15:43;100460.78;;;22.40;100.00
13348;BME280;6743;49.934;9.138;2023-06-22T03:18:09;100466.69;;;22.37;100.00
13348;BME280;6743;49.934;9.138;2023-06-22T03:20:35;100466.91;;;22.36;100.00
13348;BME280;6743;49.934;9.138;2023-06-22T03:23:00;100453.19;;;22.26;100.00
13348;BME280;6743;49.934;9.138;2023-06-22T03:25:26;100460.56;;;22.30;100.00
13348;BME280;6743;49.934;9.138;2023-06-22T03:27:52;100462.91;;;22.27;100.00
13348;BME280;6743;49.934;9.138;2023-06-22T03:30:19;100467.75;;;22.25;100.00
13348;BME280;6743;49.934;9.138;2023-06-22T03:32:45;100466.09;;;22.24;100.00
13348;BME280;6743;49.934;9.138;2023-06-22T03:35:12;100469.16;;;22.16;100.00
13348;BME280;6743;49.934;9.138;2023-06-22T03:37:39;100469.03;;;22.11;100.00
13348;BME280;6743;49.934;9.138;2023-06-22T03:40:06;100473.84;;;22.09;100.00
13348;BME280;6743;49.934;9.138;2023-06-22T03:42:36;100468.94;;;22.06;100.00
13348;BME280;6743;49.934;9.138;2023-06-22T03:45:03;100472.69;;;22.05;100.00
13348;BME280;6743;49.934;9.138;2023-06-22T03:47:29;100461.06;;;22.04;100.00
13348;BME280;6743;49.934;9.138;2023-06-22T03:49:56;100460.22;;;22.04;100.00
13348;BME280;6743;49.934;9.138;2023-06-22T03:52:22;100453.78;;;22.05;100.00
13348;BME280;6743;49.934;9.138;2023-06-22T03:54:50;100449.19;;;22.05;100.00
13348;BME280;6743;49.934;9.138;2023-06-22T03:57:16;100455.16;;;22.07;100.00
13348;BME280;6743;49.934;9.138;2023-06-22T03:59:43;100462.72;;;22.05;100.00
13348;BME280;6743;49.934;9.138;2023-06-22T04:02:09;100458.91;;;22.06;100.00
13348;BME280;6743;49.934;9.138;2023-06-22T04:04:36;100454.00;;;22.03;100.00
13348;BME280;6743;49.934;9.138;2023-06-22T04:07:04;100467.03;;;22.06;100.00
13348;BME280;6743;49.934;9.138;2023-06-22T04:09:30;100458.91;;;22.06;100.00
13348;BME280;6743;49.934;9.138;2023-06-22T04:11:56;100450.72;;;22.01;100.00
13348;BME280;6743;49.934;9.138;2023-06-22T04:14:22;100463.53;;;22.06;100.00
13348;BME280;6743;49.934;9.138;2023-06-22T04:16:48;100448.38;;;22.05;100.00
13348;BME280;6743;49.934;9.138;2023-06-22T04:19:14;100456.22;;;22.06;100.00
13348;BME280;6743;49.934;9.138;2023-06-22T04:21:44;100453.87;;;22.10;100.00
13348;BME280;6743;49.934;9.138;2023-06-22T04:24:10;100448.00;;;22.01;100.00
13348;BME280;6743;49.934;9.138;2023-06-22T04:26:36;100454.72;;;22.10;100.00
13348;BME280;6743;49.934;9.138;2023-06-22T04:29:03;100456.81;;;22.08;100.00
13348;BME280;6743;49.934;9.138;2023-06-22T04:31:31;100455.75;;;22.09;100.00
13348;BME280;6743;49.934;9.138;2023-06-22T04:33:59;100454.47;;;22.12;100.00
13348;BME280;6743;49.934;9.138;2023-06-22T04:36:33;100458.00;;;22.12;100.00
13348;BME280;6743;49.934;9.138;2023-06-22T04:39:05;100454.22;;;22.13;100.00
13348;BME280;6743;49.934;9.138;2023-06-22T04:41:31;100446.38;;;22.12;100.00
13348;BME280;6743;49.934;9.138;2023-06-22T04:44:08;100449.28;;;22.22;100.00
13348;BME280;6743;49.934;9.138;2023-06-22T04:46:34;100454.00;;;22.26;100.00
13348;BME280;6743;49.934;9.138;2023-06-22T04:49:04;100452.69;;;22.29;100.00
13348;BME280;6743;49.934;9.138;2023-06-22T04:51:32;100456.81;;;22.31;100.00
13348;BME280;6743;49.934;9.138;2023-06-22T04:54:01;100446.00;;;22.31;100.00
13348;BME280;6743;49.934;9.138;2023-06-22T04:56:27;100428.03;;;22.25;100.00
13348;BME280;6743;49.934;9.138;2023-06-22T04:58:54;100436.56;;;22.34;100.00
13348;BME280;6743;49.934;9.138;2023-06-22T05:01:22;100422.12;;;22.28;100.00
13348;BME280;6743;49.934;9.138;2023-06-22T05:03:48;100438.22;;;22.35;100.00
13348;BME280;6743;49.934;9.138;2023-06-22T05:06:14;100427.53;;;22.28;100.00
13348;BME280;6743;49.934;9.138;2023-06-22T05:08:40;100438.81;;;22.37;100.00
13348;BME280;6743;49.934;9.138;2023-06-22T05:11:06;100439.97;;;22.41;100.00
13348;BME280;6743;49.934;9.138;2023-06-22T05:13:33;100439.75;;;22.43;100.00
13348;BME280;6743;49.934;9.138;2023-06-22T05:15:59;100437.41;;;22.46;100.00
13348;BME280;6743;49.934;9.138;2023-06-22T05:18:27;100433.66;;;22.47;100.00
13348;BME280;6743;49.934;9.138;2023-06-22T05:20:54;100438.56;;;22.50;100.00
13348;BME280;6743;49.934;9.138;2023-06-22T05:23:20;100440.53;;;22.55;100.00
13348;BME280;6743;49.934;9.138;2023-06-22T05:25:46;100430.09;;;22.58;100.00
13348;BME280;6743;49.934;9.138;2023-06-22T05:28:12;100430.41;;;22.62;100.00
13348;BME280;6743;49.934;9.138;2023-06-22T05:30:39;100421.75;;;22.60;100.00
13348;BME280;6743;49.934;9.138;2023-06-22T05:33:05;100443.56;;;22.70;100.00
13348;BME280;6743;49.934;9.138;2023-06-22T05:35:31;100431.00;;;22.75;100.00
13348;BME280;6743;49.934;9.138;2023-06-22T05:37:58;100427.09;;;22.83;100.00
13348;BME280;6743;49.934;9.138;2023-06-22T05:40:24;100433.66;;;22.87;100.00
13348;BME280;6743;49.934;9.138;2023-06-22T05:42:50;100427.44;;;22.87;100.00
13348;BME280;6743;49.934;9.138;2023-06-22T05:45:16;100412.12;;;22.92;100.00
13348;BME280;6743;49.934;9.138;2023-06-22T05:47:42;100418.44;;;22.98;100.00
13348;BME280;6743;49.934;9.138;2023-06-22T05:50:09;100420.00;;;22.94;100.00
13348;BME280;6743;49.934;9.138;2023-06-22T05:52:35;100415.97;;;22.96;100.00
13348;BME280;6743;49.934;9.138;2023-06-22T05:55:02;100414.75;;;23.04;100.00
13348;BME280;6743;49.934;9.138;2023-06-22T05:57:28;100408.06;;;23.06;100.00
13348;BME280;6743;49.934;9.138;2023-06-22T05:59:54;100412.72;;;23.11;100.00
13348;BME280;6743;49.934;9.138;2023-06-22T06:02:21;100411.44;;;23.13;100.00
13348;BME280;6743;49.934;9.138;2023-06-22T06:04:47;100413.16;;;23.20;100.00
13348;BME280;6743;49.934;9.138;2023-06-22T06:07:16;100404.22;;;23.19;100.00
13348;BME280;6743;49.934;9.138;2023-06-22T06:09:42;100420.53;;;23.24;100.00
13348;BME280;6743;49.934;9.138;2023-06-22T06:12:09;100411.34;;;23.25;100.00
13348;BME280;6743;49.934;9.138;2023-06-22T06:14:35;100410.28;;;23.26;100.00
13348;BME280;6743;49.934;9.138;2023-06-22T06:17:01;100410.06;;;23.28;100.00
13348;BME280;6743;49.934;9.138;2023-06-22T06:19:27;100403.66;;;23.34;100.00
13348;BME280;6743;49.934;9.138;2023-06-22T06:21:54;100400.22;;;23.38;100.00
13348;BME280;6743;49.934;9.138;2023-06-22T06:24:20;100399.50;;;23.43;100.00
13348;BME280;6743;49.934;9.138;2023-06-22T06:29:12;100391.25;;;23.49;100.00
13348;BME280;6743;49.934;9.138;2023-06-22T06:31:38;100391.56;;;23.53;100.00
13348;BME280;6743;49.934;9.138;2023-06-22T06:34:10;100385.66;;;23.56;100.00
13348;BME280;6743;49.934;9.138;2023-06-22T06:36:41;100391.06;;;23.56;100.00
13348;BME280;6743;49.934;9.138;2023-06-22T06:39:08;100383.25;;;23.60;100.00
13348;BME280;6743;49.934;9.138;2023-06-22T06:41:35;100369.97;;;23.58;100.00
13348;BME280;6743;49.934;9.138;2023-06-22T06:44:01;100364.66;;;23.63;100.00
13348;BME280;6743;49.934;9.138;2023-06-22T06:46:29;100357.41;;;23.69;100.00
13348;BME280;6743;49.934;9.138;2023-06-22T06:48:57;100365.44;;;23.80;100.00
13348;BME280;6743;49.934;9.138;2023-06-22T06:51:23;100355.34;;;23.76;100.00
13348;BME280;6743;49.934;9.138;2023-06-22T06:53:49;100359.09;;;23.91;100.00
13348;BME280;6743;49.934;9.138;2023-06-22T06:56:16;100365.41;;;23.97;100.00
13348;BME280;6743;49.934;9.138;2023-06-22T06:58:42;100360.06;;;24.02;100.00
13348;BME280;6743;49.934;9.138;2023-06-22T07:01:10;100356.34;;;24.08;100.00
13348;BME280;6743;49.934;9.138;2023-06-22T07:03:36;100360.75;;;24.14;100.00
13348;BME280;6743;49.934;9.138;2023-06-22T07:06:02;100373.56;;;24.19;100.00
13348;BME280;6743;49.934;9.138;2023-06-22T07:08:28;100380.72;;;24.25;100.00
13348;BME280;6743;49.934;9.138;2023-06-22T07:10:54;100371.56;;;24.31;100.00
13348;BME280;6743;49.934;9.138;2023-06-22T07:13:21;100376.00;;;24.37;100.00
13348;BME280;6743;49.934;9.138;2023-06-22T07:15:47;100376.88;;;24.43;100.00
13348;BME280;6743;49.934;9.138;2023-06-22T07:18:13;100368.00;;;24.47;100.00
13348;BME280;6743;49.934;9.138;2023-06-22T07:20:41;100356.56;;;24.45;100.00
13348;BME280;6743;49.934;9.138;2023-06-22T07:23:07;100358.31;;;24.56;100.00
13348;BME280;6743;49.934;9.138;2023-06-22T07:25:33;100356.75;;;24.60;100.00
13348;BME280;6743;49.934;9.138;2023-06-22T07:28:02;100358.19;;;24.68;100.00
13348;BME280;6743;49.934;9.138;2023-06-22T07:30:29;100347.97;;;24.75;100.00
13348;BME280;6743;49.934;9.138;2023-06-22T07:32:56;100342.31;;;24.82;100.00
13348;BME280;6743;49.934;9.138;2023-06-22T07:35:24;100345.09;;;24.87;100.00
13348;BME280;6743;49.934;9.138;2023-06-22T07:37:50;100342.44;;;24.92;100.00
13348;BME280;6743;49.934;9.138;2023-06-22T07:40:16;100349.56;;;24.98;100.00
13348;BME280;6743;49.934;9.138;2023-06-22T07:42:42;100330.62;;;25.03;100.00
13348;BME280;6743;49.934;9.138;2023-06-22T07:45:08;100339.63;;;25.08;100.00
13348;BME280;6743;49.934;9.138;2023-06-22T07:47:35;100333.41;;;25.13;100.00
13348;BME280;6743;49.934;9.138;2023-06-22T07:50:02;100333.44;;;25.18;100.00
13348;BME280;6743;49.934;9.138;2023-06-22T07:52:29;100317.47;;;25.22;100.00
13348;BME280;6743;49.934;9.138;2023-06-22T07:54:55;100323.75;;;25.27;100.00
13348;BME280;6743;49.934;9.138;2023-06-22T07:57:23;100308.56;;;25.31;100.00
13348;BME280;6743;49.934;9.138;2023-06-22T07:59:57;100321.44;;;25.46;100.00
13348;BME280;6743;49.934;9.138;2023-06-22T08:02:23;100321.22;;;25.52;100.00
13348;BME280;6743;49.934;9.138;2023-06-22T08:04:49;100310.63;;;25.51;100.00
13348;BME280;6743;49.934;9.138;2023-06-22T08:07:16;100322.41;;;25.62;100.00
13348;BME280;6743;49.934;9.138;2023-06-22T08:09:46;100323.25;;;25.67;100.00
13348;BME280;6743;49.934;9.138;2023-06-22T08:12:13;100311.87;;;25.70;100.00
13348;BME280;6743;49.934;9.138;2023-06-22T08:14:41;100314.84;;;25.74;100.00
13348;BME280;6743;49.934;9.138;2023-06-22T08:17:07;100316.25;;;25.76;100.00
13348;BME280;6743;49.934;9.138;2023-06-22T08:19:33;100321.13;;;25.79;100.00
13348;BME280;6743;49.934;9.138;2023-06-22T08:22:00;100321.44;;;25.83;100.00
13348;BME280;6743;49.934;9.138;2023-06-22T08:24:26;100322.53;;;25.87;100.00
13348;BME280;6743;49.934;9.138;2023-06-22T08:26:56;100319.56;;;25.94;100.00
13348;BME280;6743;49.934;9.138;2023-06-22T08:29:22;100325.06;;;25.99;100.00
13348;BME280;6743;49.934;9.138;2023-06-22T08:31:48;100325.06;;;26.04;100.00
13348;BME280;6743;49.934;9.138;2023-06-22T08:34:14;100323.19;;;26.09;100.00
13348;BME280;6743;49.934;9.138;2023-06-22T08:36:41;100312.06;;;26.16;100.00
13348;BME280;6743;49.934;9.138;2023-06-22T08:39:11;100328.41;;;26.21;100.00
13348;BME280;6743;49.934;9.138;2023-06-22T08:41:37;100330.38;;;26.25;100.00
13348;BME280;6743;49.934;9.138;2023-06-22T08:44:03;100318.69;;;26.30;100.00
13348;BME280;6743;49.934;9.138;2023-06-22T08:46:30;100323.06;;;26.36;100.00
13348;BME280;6743;49.934;9.138;2023-06-22T08:48:57;100315.72;;;26.42;100.00
13348;BME280;6743;49.934;9.138;2023-06-22T08:51:23;100310.31;;;26.47;100.00
13348;BME280;6743;49.934;9.138;2023-06-22T08:53:49;100308.13;;;26.49;100.00
13348;BME280;6743;49.934;9.138;2023-06-22T08:56:16;100299.19;;;26.53;100.00
13348;BME280;6743;49.934;9.138;2023-06-22T08:58:42;100302.97;;;26.62;100.00
13348;BME280;6743;49.934;9.138;2023-06-22T09:01:08;100297.56;;;26.67;100.00
13348;BME280;6743;49.934;9.138;2023-06-22T09:03:34;100304.66;;;26.74;100.00
13348;BME280;6743;49.934;9.138;2023-06-22T09:06:01;100304.38;;;26.80;100.00
13348;BME280;6743;49.934;9.138;2023-06-22T09:08:27;100288.63;;;26.82;100.00
13348;BME280;6743;49.934;9.138;2023-06-22T09:10:56;100290.22;;;26.83;100.00
13348;BME280;6743;49.934;9.138;2023-06-22T09:13:23;100305.78;;;26.93;100.00
13348;BME280;6743;49.934;9.138;2023-06-22T09:15:49;100301.44;;;27.02;100.00
13348;BME280;6743;49.934;9.138;2023-06-22T09:18:15;100302.25;;;27.08;100.00
13348;BME280;6743;49.934;9.138;2023-06-22T09:20:41;100311.50;;;27.12;100.00
13348;BME280;6743;49.934;9.138;2023-06-22T09:23:07;100301.72;;;27.16;100.00
13348;BME280;6743;49.934;9.138;2023-06-22T09:25:33;100293.00;;;27.24;100.00
13348;BME280;6743;49.934;9.138;2023-06-22T09:27:59;100283.16;;;27.33;100.00
13348;BME280;6743;49.934;9.138;2023-06-22T09:30:26;100297.84;;;27.47;100.00
13348;BME280;6743;49.934;9.138;2023-06-22T09:32:52;100301.16;;;27.54;100.00
13348;BME280;6743;49.934;9.138;2023-06-22T09:35:18;100293.22;;;27.63;100.00
13348;BME280;6743;49.934;9.138;2023-06-22T09:37:45;100271.44;;;27.53;100.00
13348;BME280;6743;49.934;9.138;2023-06-22T09:40:12;100287.50;;;27.64;100.00
13348;BME280;6743;49.934;9.138;2023-06-22T09:42:38;100281.22;;;27.69;100.00
13348;BME280;6743;49.934;9.138;2023-06-22T09:45:05;100283.94;;;27.74;100.00
13348;BME280;6743;49.934;9.138;2023-06-22T09:47:32;100279.56;;;27.78;100.00
13348;BME280;6743;49.934;9.138;2023-06-22T09:49:58;100275.19;;;27.82;100.00
13348;BME280;6743;49.934;9.138;2023-06-22T09:52:25;100263.72;;;27.85;100.00
13348;BME280;6743;49.934;9.138;2023-06-22T09:54:51;100274.59;;;27.90;100.00
13348;BME280;6743;49.934;9.138;2023-06-22T09:57:17;100254.44;;;27.91;100.00
13348;BME280;6743;49.934;9.138;2023-06-22T09:59:43;100268.00;;;28.06;100.00
13348;BME280;6743;49.934;9.138;2023-06-22T10:02:11;100261.44;;;28.12;100.00
13348;BME280;6743;49.934;9.138;2023-06-22T10:04:37;100272.34;;;28.17;100.00
13348;BME280;6743;49.934;9.138;2023-06-22T10:07:05;100267.16;;;28.21;100.00
13348;BME280;6743;49.934;9.138;2023-06-22T10:09:31;100261.13;;;28.24;100.00
13348;BME280;6743;49.934;9.138;2023-06-22T10:11:57;100260.03;;;28.25;100.00
13348;BME280;6743;49.934;9.138;2023-06-22T10:14:23;100257.22;;;28.35;100.00
13348;BME280;6743;49.934;9.138;2023-06-22T10:16:51;100268.09;;;28.45;100.00
13348;BME280;6743;49.934;9.138;2023-06-22T10:19:18;100257.94;;;28.51;100.00
13348;BME280;6743;49.934;9.138;2023-06-22T10:21:44;100249.97;;;28.59;100.00
13348;BME280;6743;49.934;9.138;2023-06-22T10:24:10;100243.16;;;28.62;100.00
13348;BME280;6743;49.934;9.138;2023-06-22T10:26:36;100223.19;;;28.67;100.00
13348;BME280;6743;49.934;9.138;2023-06-22T10:29:03;100214.97;;;28.67;100.00
13348;BME280;6743;49.934;9.138;2023-06-22T10:31:29;100213.84;;;28.73;100.00
13348;BME280;6743;49.934;9.138;2023-06-22T10:33:55;100203.50;;;28.75;100.00
13348;BME280;6743;49.934;9.138;2023-06-22T10:36:21;100196.13;;;28.75;100.00
13348;BME280;6743;49.934;9.138;2023-06-22T10:38:48;100193.88;;;28.77;100.00
13348;BME280;6743;49.934;9.138;2023-06-22T10:41:15;100195.72;;;28.87;100.00
13348;BME280;6743;49.934;9.138;2023-06-22T10:43:41;100178.44;;;28.96;100.00
13348;BME280;6743;49.934;9.138;2023-06-22T10:46:07;100160.91;;;29.03;100.00
13348;BME280;6743;49.934;9.138;2023-06-22T10:48:34;100161.12;;;29.06;100.00
13348;BME280;6743;49.934;9.138;2023-06-22T10:51:00;100162.75;;;29.07;100.00
13348;BME280;6743;49.934;9.138;2023-06-22T10:53:26;100167.00;;;29.18;100.00
13348;BME280;6743;49.934;9.138;2023-06-22T10:55:52;100151.38;;;29.24;100.00
13348;BME280;6743;49.934;9.138;2023-06-22T10:58:20;100160.84;;;29.31;100.00
13348;BME280;6743;49.934;9.138;2023-06-22T11:00:46;100151.28;;;29.34;100.00
13348;BME280;6743;49.934;9.138;2023-06-22T11:03:11;100153.66;;;29.41;100.00
13348;BME280;6743;49.934;9.138;2023-06-22T11:05:39;100148.66;;;29.48;100.00
13348;BME280;6743;49.934;9.138;2023-06-22T11:08:06;100136.88;;;29.52;100.00
13348;BME280;6743;49.934;9.138;2023-06-22T11:10:32;100152.81;;;29.64;100.00
13348;BME280;6743;49.934;9.138;2023-06-22T11:12:59;100142.41;;;29.66;100.00
13348;BME280;6743;49.934;9.138;2023-06-22T11:15:25;100139.16;;;29.64;100.00
13348;BME280;6743;49.934;9.138;2023-06-22T11:17:51;100145.16;;;29.66;100.00
13348;BME280;6743;49.934;9.138;2023-06-22T11:20:17;100140.72;;;29.70;100.00
13348;BME280;6743;49.934;9.138;2023-06-22T11:22:43;100131.69;;;29.69;100.00
13348;BME280;6743;49.934;9.138;2023-06-22T11:25:12;100144.19;;;29.75;100.00
13348;BME280;6743;49.934;9.138;2023-06-22T11:27:40;100132.66;;;29.79;100.00
13348;BME280;6743;49.934;9.138;2023-06-22T11:30:10;100119.81;;;29.79;100.00
13348;BME280;6743;49.934;9.138;2023-06-22T11:32:36;100106.13;;;29.79;100.00
13348;BME280;6743;49.934;9.138;2023-06-22T11:35:02;100104.50;;;29.78;100.00
13348;BME280;6743;49.934;9.138;2023-06-22T11:37:28;100117.91;;;29.80;100.00
13348;BME280;6743;49.934;9.138;2023-06-22T11:39:57;100103.09;;;29.81;100.00
13348;BME280;6743;49.934;9.138;2023-06-22T11:42:23;100115.59;;;29.87;100.00
13348;BME280;6743;49.934;9.138;2023-06-22T11:44:50;100117.69;;;29.95;100.00
13348;BME280;6743;49.934;9.138;2023-06-22T11:47:17;100117.25;;;30.06;100.00
13348;BME280;6743;49.934;9.138;2023-06-22T11:49:43;100099.03;;;30.15;100.00
13348;BME280;6743;49.934;9.138;2023-06-22T11:52:09;100109.91;;;30.21;100.00
13348;BME280;6743;49.934;9.138;2023-06-22T11:54:35;100099.97;;;30.25;100.00
13348;BME280;6743;49.934;9.138;2023-06-22T11:57:01;100105.47;;;30.25;100.00
13348;BME280;6743;49.934;9.138;2023-06-22T11:59:27;100093.41;;;30.26;100.00
13348;BME280;6743;49.934;9.138;2023-06-22T12:01:53;100083.78;;;30.28;100.00
13348;BME280;6743;49.934;9.138;2023-06-22T12:04:27;100081.16;;;30.37;100.00
13348;BME280;6743;49.934;9.138;2023-06-22T12:06:59;100078.03;;;30.43;100.00
13348;BME280;6743;49.934;9.138;2023-06-22T12:09:25;100085.09;;;30.49;100.00
13348;BME280;6743;49.934;9.138;2023-06-22T12:12:01;100075.69;;;30.56;100.00
13348;BME280;6743;49.934;9.138;2023-06-22T12:14:27;100072.56;;;30.62;100.00
13348;BME280;6743;49.934;9.138;2023-06-22T12:16:53;100057.94;;;30.67;100.00
13348;BME280;6743;49.934;9.138;2023-06-22T12:19:20;100067.16;;;30.71;100.00
13348;BME280;6743;49.934;9.138;2023-06-22T12:21:46;100069.31;;;30.74;100.00
13348;BME280;6743;49.934;9.138;2023-06-22T12:24:12;100070.66;;;30.76;100.00
13348;BME280;6743;49.934;9.138;2023-06-22T12:26:38;100067.91;;;30.76;100.00
13348;BME280;6743;49.934;9.138;2023-06-22T12:29:04;100062.62;;;30.80;100.00
13348;BME280;6743;49.934;9.138;2023-06-22T12:31:30;100048.22;;;30.74;100.00
13348;BME280;6743;49.934;9.138;2023-06-22T12:33:56;100050.16;;;30.87;100.00
13348;BME280;6743;49.934;9.138;2023-06-22T12:36:23;100053.00;;;30.96;100.00
13348;BME280;6743;49.934;9.138;2023-06-22T12:38:50;100049.03;;;31.02;100.00
13348;BME280;6743;49.934;9.138;2023-06-22T12:41:19;100047.03;;;31.08;100.00
13348;BME280;6743;49.934;9.138;2023-06-22T12:43:46;100038.22;;;31.11;100.00
13348;BME280;6743;49.934;9.138;2023-06-22T12:46:12;100034.13;;;31.22;100.00
13348;BME280;6743;49.934;9.138;2023-06-22T12:48:38;100039.69;;;31.30;100.00
13348;BME280;6743;49.934;9.138;2023-06-22T12:51:07;100031.66;;;31.34;100.00